sensor_id;sensor_type;location;lat;lon;timestamp;P1;durP1;ratioP1;P2;durP2;ratioP2
34832;SDS011;55941;50.800;4.342;2022-12-11T00:01:30;37.20;;;21.23;;
34832;SDS011;55941;50.800;4.342;2022-12-11T00:03:55;41.55;;;22.13;;
34832;SDS011;55941;50.800;4.342;2022-12-11T00:06:22;43.80;;;22.20;;
34832;SDS011;55941;50.800;4.342;2022-12-11T00:08:51;41.83;;;23.23;;
34832;SDS011;55941;50.800;4.342;2022-12-11T00:11:19;39.40;;;22.73;;
34832;SDS011;55941;50.800;4.342;2022-12-11T00:13:46;41.50;;;22.67;;
34832;SDS011;55941;50.800;4.342;2022-12-11T00:16:12;48.30;;;23.52;;
34832;SDS011;55941;50.800;4.342;2022-12-11T00:18:38;36.30;;;21.48;;
34832;SDS011;55941;50.800;4.342;2022-12-11T00:21:06;40.08;;;22.08;;
34832;SDS011;55941;50.800;4.342;2022-12-11T00:23:34;36.78;;;21.38;;
34832;SDS011;55941;50.800;4.342;2022-12-11T00:26:03;41.33;;;23.58;;
34832;SDS011;55941;50.800;4.342;2022-12-11T00:28:31;42.03;;;23.08;;
34832;SDS011;55941;50.800;4.342;2022-12-11T00:30:57;38.78;;;22.63;;
34832;SDS011;55941;50.800;4.342;2022-12-11T00:33:25;38.47;;;22.38;;
34832;SDS011;55941;50.800;4.342;2022-12-11T00:35:51;37.75;;;22.77;;
34832;SDS011;55941;50.800;4.342;2022-12-11T00:38:18;46.08;;;23.08;;
34832;SDS011;55941;50.800;4.342;2022-12-11T00:40:45;40.35;;;22.80;;
34832;SDS011;55941;50.800;4.342;2022-12-11T00:43:13;38.10;;;23.10;;
34832;SDS011;55941;50.800;4.342;2022-12-11T00:45:39;36.97;;;23.10;;
34832;SDS011;55941;50.800;4.342;2022-12-11T00:48:07;40.13;;;21.95;;
34832;SDS011;55941;50.800;4.342;2022-12-11T00:50:34;43.05;;;22.83;;
34832;SDS011;55941;50.800;4.342;2022-12-11T00:53:00;43.97;;;22.63;;
34832;SDS011;55941;50.800;4.342;2022-12-11T00:55:27;45.35;;;24.38;;
34832;SDS011;55941;50.800;4.342;2022-12-11T00:57:54;42.33;;;24.13;;
34832;SDS011;55941;50.800;4.342;2022-12-11T01:00:20;45.13;;;25.27;;
34832;SDS011;55941;50.800;4.342;2022-12-11T01:02:47;43.10;;;23.52;;
34832;SDS011;55941;50.800;4.342;2022-12-11T01:05:13;42.17;;;23.88;;
34832;SDS011;55941;50.800;4.342;2022-12-11T01:07:40;41.40;;;22.05;;
34832;SDS011;55941;50.800;4.342;2022-12-11T01:10:07;40.92;;;24.60;;
34832;SDS011;55941;50.800;4.342;2022-12-11T01:12:48;40.88;;;23.92;;
34832;SDS011;55941;50.800;4.342;2022-12-11T01:15:15;45.60;;;24.58;;
34832;SDS011;55941;50.800;4.342;2022-12-11T01:17:41;44.72;;;24.05;;
34832;SDS011;55941;50.800;4.342;2022-12-11T01:20:07;38.38;;;23.70;;
34832;SDS011;55941;50.800;4.342;2022-12-11T01:22:33;40.97;;;24.77;;
34832;SDS011;55941;50.800;4.342;2022-12-11T01:24:59;44.45;;;22.98;;
34832;SDS011;55941;50.800;4.342;2022-12-11T01:27:25;44.45;;;23.20;;
34832;SDS011;55941;50.800;4.342;2022-12-11T01:29:50;39.67;;;22.23;;
34832;SDS011;55941;50.800;4.342;2022-12-11T01:32:16;40.85;;;23.58;;
34832;SDS011;55941;50.800;4.342;2022-12-11T01:34:42;44.20;;;24.77;;
34832;SDS011;55941;50.800;4.342;2022-12-11T01:37:08;43.60;;;24.17;;
34832;SDS011;55941;50.800;4.342;2022-12-11T01:39:35;46.20;;;24.15;;
34832;SDS011;55941;50.800;4.342;2022-12-11T01:42:02;45.42;;;24.42;;
34832;SDS011;55941;50.800;4.342;2022-12-11T01:46:56;46.40;;;25.00;;
34832;SDS011;55941;50.800;4.342;2022-12-11T01:49:23;42.80;;;25.05;;
34832;SDS011;55941;50.800;4.342;2022-12-11T01:54:19;46.65;;;27.08;;
34832;SDS011;55941;50.800;4.342;2022-12-11T01:56:47;44.58;;;24.90;;
34832;SDS011;55941;50.800;4.342;2022-12-11T01:59:16;43.58;;;25.25;;
34832;SDS011;55941;50.800;4.342;2022-12-11T02:04:23;44.63;;;26.40;;
34832;SDS011;55941;50.800;4.342;2022-12-11T02:06:54;45.22;;;25.70;;
34832;SDS011;55941;50.800;4.342;2022-12-11T02:09:27;46.78;;;26.17;;
34832;SDS011;55941;50.800;4.342;2022-12-11T02:12:00;49.03;;;26.25;;
34832;SDS011;55941;50.800;4.342;2022-12-11T02:14:45;49.60;;;26.65;;
34832;SDS011;55941;50.800;4.342;2022-12-11T02:25:46;49.17;;;25.30;;
34832;SDS011;55941;50.800;4.342;2022-12-11T02:28:36;39.90;;;25.30;;
34832;SDS011;55941;50.800;4.342;2022-12-11T02:31:09;46.08;;;26.40;;
34832;SDS011;55941;50.800;4.342;2022-12-11T02:33:42;41.25;;;24.73;;
34832;SDS011;55941;50.800;4.342;2022-12-11T02:36:22;44.60;;;24.80;;
34832;SDS011;55941;50.800;4.342;2022-12-11T02:38:50;40.58;;;24.73;;
34832;SDS011;55941;50.800;4.342;2022-12-11T02:41:19;45.90;;;25.05;;
34832;SDS011;55941;50.800;4.342;2022-12-11T02:43:47;44.35;;;23.83;;
34832;SDS011;55941;50.800;4.342;2022-12-11T02:46:15;39.58;;;23.95;;
34832;SDS011;55941;50.800;4.342;2022-12-11T02:48:43;41.33;;;23.60;;
34832;SDS011;55941;50.800;4.342;2022-12-11T02:51:10;39.95;;;24.02;;
34832;SDS011;55941;50.800;4.342;2022-12-11T02:53:40;46.30;;;25.25;;
34832;SDS011;55941;50.800;4.342;2022-12-11T02:59:13;42.08;;;24.75;;
34832;SDS011;55941;50.800;4.342;2022-12-11T03:01:43;41.65;;;24.33;;
34832;SDS011;55941;50.800;4.342;2022-12-11T03:04:10;45.45;;;24.73;;
34832;SDS011;55941;50.800;4.342;2022-12-11T03:06:39;40.83;;;25.08;;
34832;SDS011;55941;50.800;4.342;2022-12-11T03:09:08;42.92;;;25.58;;
34832;SDS011;55941;50.800;4.342;2022-12-11T03:11:34;42.83;;;24.88;;
34832;SDS011;55941;50.800;4.342;2022-12-11T03:14:00;50.70;;;26.63;;
34832;SDS011;55941;50.800;4.342;2022-12-11T03:21:32;48.33;;;27.50;;
34832;SDS011;55941;50.800;4.342;2022-12-11T03:24:22;49.75;;;29.00;;
34832;SDS011;55941;50.800;4.342;2022-12-11T03:26:55;56.53;;;29.55;;
34832;SDS011;55941;50.800;4.342;2022-12-11T03:29:31;54.72;;;30.38;;
34832;SDS011;55941;50.800;4.342;2022-12-11T03:32:08;58.50;;;30.73;;
34832;SDS011;55941;50.800;4.342;2022-12-11T03:34:40;60.95;;;32.03;;
34832;SDS011;55941;50.800;4.342;2022-12-11T03:37:31;58.58;;;30.02;;
34832;SDS011;55941;50.800;4.342;2022-12-11T03:40:06;57.65;;;31.27;;
34832;SDS011;55941;50.800;4.342;2022-12-11T03:42:36;53.85;;;30.65;;
34832;SDS011;55941;50.800;4.342;2022-12-11T03:45:03;55.30;;;30.42;;
34832;SDS011;55941;50.800;4.342;2022-12-11T03:47:30;53.38;;;29.13;;
34832;SDS011;55941;50.800;4.342;2022-12-11T03:49:57;66.13;;;30.42;;
34832;SDS011;55941;50.800;4.342;2022-12-11T03:52:26;62.53;;;30.75;;
34832;SDS011;55941;50.800;4.342;2022-12-11T03:54:53;65.82;;;30.38;;
34832;SDS011;55941;50.800;4.342;2022-12-11T03:57:25;57.55;;;31.05;;
34832;SDS011;55941;50.800;4.342;2022-12-11T03:59:57;62.05;;;30.63;;
34832;SDS011;55941;50.800;4.342;2022-12-11T04:02:23;54.35;;;31.05;;
34832;SDS011;55941;50.800;4.342;2022-12-11T04:04:49;62.00;;;29.95;;
34832;SDS011;55941;50.800;4.342;2022-12-11T04:07:15;56.45;;;31.48;;
34832;SDS011;55941;50.800;4.342;2022-12-11T04:09:41;63.78;;;31.27;;
34832;SDS011;55941;50.800;4.342;2022-12-11T04:12:07;63.85;;;31.60;;
34832;SDS011;55941;50.800;4.342;2022-12-11T04:14:32;62.72;;;31.33;;
34832;SDS011;55941;50.800;4.342;2022-12-11T04:17:17;65.68;;;32.17;;
34832;SDS011;55941;50.800;4.342;2022-12-11T04:20:03;58.60;;;30.60;;
34832;SDS011;55941;50.800;4.342;2022-12-11T04:22:48;68.95;;;33.30;;
34832;SDS011;55941;50.800;4.342;2022-12-11T04:25:32;62.38;;;32.47;;
34832;SDS011;55941;50.800;4.342;2022-12-11T04:27:58;65.13;;;32.42;;
34832;SDS011;55941;50.800;4.342;2022-12-11T04:30:24;68.05;;;33.50;;
34832;SDS011;55941;50.800;4.342;2022-12-11T04:32:52;58.65;;;30.90;;
34832;SDS011;55941;50.800;4.342;2022-12-11T04:35:19;70.50;;;33.60;;
34832;SDS011;55941;50.800;4.342;2022-12-11T04:37:46;69.00;;;32.72;;
34832;SDS011;55941;50.800;4.342;2022-12-11T04:40:13;56.42;;;31.77;;
34832;SDS011;55941;50.800;4.342;2022-12-11T04:42:40;61.08;;;31.15;;
34832;SDS011;55941;50.800;4.342;2022-12-11T04:45:06;60.45;;;30.58;;
34832;SDS011;55941;50.800;4.342;2022-12-11T04:47:34;62.20;;;32.55;;
34832;SDS011;55941;50.800;4.342;2022-12-11T04:50:01;60.28;;;30.75;;
34832;SDS011;55941;50.800;4.342;2022-12-11T04:52:28;66.03;;;32.75;;
34832;SDS011;55941;50.800;4.342;2022-12-11T04:54:53;62.60;;;31.90;;
34832;SDS011;55941;50.800;4.342;2022-12-11T04:57:20;54.20;;;31.50;;
34832;SDS011;55941;50.800;4.342;2022-12-11T04:59:46;54.08;;;30.10;;
34832;SDS011;55941;50.800;4.342;2022-12-11T05:02:13;57.47;;;31.70;;
34832;SDS011;55941;50.800;4.342;2022-12-11T05:04:39;62.53;;;31.88;;
34832;SDS011;55941;50.800;4.342;2022-12-11T05:07:06;63.92;;;30.20;;
34832;SDS011;55941;50.800;4.342;2022-12-11T05:09:33;65.10;;;31.83;;
34832;SDS011;55941;50.800;4.342;2022-12-11T05:11:59;60.03;;;33.10;;
34832;SDS011;55941;50.800;4.342;2022-12-11T05:14:26;60.92;;;32.20;;
34832;SDS011;55941;50.800;4.342;2022-12-11T05:16:56;61.25;;;32.53;;
34832;SDS011;55941;50.800;4.342;2022-12-11T05:19:25;58.30;;;32.10;;
34832;SDS011;55941;50.800;4.342;2022-12-11T05:21:51;59.25;;;31.17;;
34832;SDS011;55941;50.800;4.342;2022-12-11T05:24:17;56.67;;;31.40;;
34832;SDS011;55941;50.800;4.342;2022-12-11T05:26:43;61.90;;;31.58;;
34832;SDS011;55941;50.800;4.342;2022-12-11T05:29:08;59.67;;;30.63;;
34832;SDS011;55941;50.800;4.342;2022-12-11T05:31:34;50.60;;;29.50;;
34832;SDS011;55941;50.800;4.342;2022-12-11T05:34:00;56.88;;;29.60;;
34832;SDS011;55941;50.800;4.342;2022-12-11T05:36:28;59.80;;;31.17;;
34832;SDS011;55941;50.800;4.342;2022-12-11T05:38:56;62.78;;;30.65;;
34832;SDS011;55941;50.800;4.342;2022-12-11T05:41:24;54.80;;;30.75;;
34832;SDS011;55941;50.800;4.342;2022-12-11T05:43:51;54.65;;;28.85;;
34832;SDS011;55941;50.800;4.342;2022-12-11T05:46:18;58.72;;;30.77;;
34832;SDS011;55941;50.800;4.342;2022-12-11T05:48:46;56.47;;;28.92;;
34832;SDS011;55941;50.800;4.342;2022-12-11T05:51:14;55.38;;;30.42;;
34832;SDS011;55941;50.800;4.342;2022-12-11T05:53:41;51.33;;;29.63;;
34832;SDS011;55941;50.800;4.342;2022-12-11T05:56:14;54.33;;;31.08;;
34832;SDS011;55941;50.800;4.342;2022-12-11T05:58:45;57.72;;;32.67;;
34832;SDS011;55941;50.800;4.342;2022-12-11T06:01:15;54.05;;;30.33;;
34832;SDS011;55941;50.800;4.342;2022-12-11T06:03:43;59.45;;;30.20;;
34832;SDS011;55941;50.800;4.342;2022-12-11T06:06:09;60.25;;;31.08;;
34832;SDS011;55941;50.800;4.342;2022-12-11T06:08:36;53.60;;;30.38;;
34832;SDS011;55941;50.800;4.342;2022-12-11T06:11:02;59.75;;;30.50;;
34832;SDS011;55941;50.800;4.342;2022-12-11T06:13:28;59.80;;;30.48;;
34832;SDS011;55941;50.800;4.342;2022-12-11T06:15:54;57.88;;;30.63;;
34832;SDS011;55941;50.800;4.342;2022-12-11T06:18:23;59.50;;;30.08;;
34832;SDS011;55941;50.800;4.342;2022-12-11T06:20:50;55.90;;;31.67;;
34832;SDS011;55941;50.800;4.342;2022-12-11T06:23:16;55.40;;;30.80;;
34832;SDS011;55941;50.800;4.342;2022-12-11T06:25:42;62.47;;;31.30;;
34832;SDS011;55941;50.800;4.342;2022-12-11T06:28:08;55.45;;;29.02;;
34832;SDS011;55941;50.800;4.342;2022-12-11T06:30:33;56.88;;;31.63;;
34832;SDS011;55941;50.800;4.342;2022-12-11T06:33:00;58.53;;;30.95;;
34832;SDS011;55941;50.800;4.342;2022-12-11T06:35:26;55.10;;;30.73;;
34832;SDS011;55941;50.800;4.342;2022-12-11T06:37:52;60.38;;;32.22;;
34832;SDS011;55941;50.800;4.342;2022-12-11T06:40:17;53.47;;;31.23;;
34832;SDS011;55941;50.800;4.342;2022-12-11T06:42:43;68.85;;;32.60;;
34832;SDS011;55941;50.800;4.342;2022-12-11T06:45:09;61.55;;;31.98;;
34832;SDS011;55941;50.800;4.342;2022-12-11T06:47:36;60.67;;;32.67;;
34832;SDS011;55941;50.800;4.342;2022-12-11T06:50:02;64.20;;;33.65;;
34832;SDS011;55941;50.800;4.342;2022-12-11T06:52:28;61.88;;;32.75;;
34832;SDS011;55941;50.800;4.342;2022-12-11T06:54:55;59.85;;;30.60;;
34832;SDS011;55941;50.800;4.342;2022-12-11T06:57:21;64.97;;;32.55;;
34832;SDS011;55941;50.800;4.342;2022-12-11T06:59:47;62.75;;;31.35;;
34832;SDS011;55941;50.800;4.342;2022-12-11T07:02:14;64.78;;;32.08;;
34832;SDS011;55941;50.800;4.342;2022-12-11T07:04:41;55.40;;;30.42;;
34832;SDS011;55941;50.800;4.342;2022-12-11T07:07:07;62.72;;;30.77;;
34832;SDS011;55941;50.800;4.342;2022-12-11T07:09:34;66.30;;;32.13;;
34832;SDS011;55941;50.800;4.342;2022-12-11T07:12:01;60.70;;;32.15;;
34832;SDS011;55941;50.800;4.342;2022-12-11T07:14:28;64.82;;;32.78;;
34832;SDS011;55941;50.800;4.342;2022-12-11T07:16:55;62.03;;;32.35;;
34832;SDS011;55941;50.800;4.342;2022-12-11T07:19:21;62.85;;;31.67;;
34832;SDS011;55941;50.800;4.342;2022-12-11T07:21:47;69.65;;;32.65;;
34832;SDS011;55941;50.800;4.342;2022-12-11T07:24:13;65.10;;;31.95;;
34832;SDS011;55941;50.800;4.342;2022-12-11T07:26:39;65.57;;;32.58;;
34832;SDS011;55941;50.800;4.342;2022-12-11T07:29:06;68.88;;;33.65;;
34832;SDS011;55941;50.800;4.342;2022-12-11T07:31:32;64.82;;;32.10;;
34832;SDS011;55941;50.800;4.342;2022-12-11T07:33:59;66.82;;;33.42;;
34832;SDS011;55941;50.800;4.342;2022-12-11T07:36:28;58.53;;;31.95;;
34832;SDS011;55941;50.800;4.342;2022-12-11T07:38:55;66.43;;;30.40;;
34832;SDS011;55941;50.800;4.342;2022-12-11T07:41:21;64.35;;;30.42;;
34832;SDS011;55941;50.800;4.342;2022-12-11T07:43:48;54.78;;;29.38;;
34832;SDS011;55941;50.800;4.342;2022-12-11T07:46:18;62.03;;;30.35;;
34832;SDS011;55941;50.800;4.342;2022-12-11T07:48:46;57.25;;;29.80;;
34832;SDS011;55941;50.800;4.342;2022-12-11T07:51:19;57.80;;;28.95;;
34832;SDS011;55941;50.800;4.342;2022-12-11T07:53:49;54.90;;;27.92;;
34832;SDS011;55941;50.800;4.342;2022-12-11T07:56:16;51.33;;;26.92;;
34832;SDS011;55941;50.800;4.342;2022-12-11T07:58:42;58.28;;;28.80;;
34832;SDS011;55941;50.800;4.342;2022-12-11T08:01:10;57.25;;;28.38;;
34832;SDS011;55941;50.800;4.342;2022-12-11T08:03:37;53.55;;;27.83;;
34832;SDS011;55941;50.800;4.342;2022-12-11T08:06:04;54.92;;;30.05;;
34832;SDS011;55941;50.800;4.342;2022-12-11T08:08:30;55.03;;;27.25;;
34832;SDS011;55941;50.800;4.342;2022-12-11T08:11:02;57.30;;;29.92;;
34832;SDS011;55941;50.800;4.342;2022-12-11T08:13:29;54.80;;;28.20;;
34832;SDS011;55941;50.800;4.342;2022-12-11T08:15:55;59.10;;;27.98;;
34832;SDS011;55941;50.800;4.342;2022-12-11T08:18:22;57.90;;;29.13;;
34832;SDS011;55941;50.800;4.342;2022-12-11T08:20:49;64.03;;;28.50;;
34832;SDS011;55941;50.800;4.342;2022-12-11T08:23:15;60.47;;;28.58;;
34832;SDS011;55941;50.800;4.342;2022-12-11T08:25:41;61.35;;;29.20;;
34832;SDS011;55941;50.800;4.342;2022-12-11T08:28:07;53.05;;;26.80;;
34832;SDS011;55941;50.800;4.342;2022-12-11T08:30:32;50.67;;;26.85;;
34832;SDS011;55941;50.800;4.342;2022-12-11T08:32:58;58.17;;;28.20;;
34832;SDS011;55941;50.800;4.342;2022-12-11T08:35:24;52.67;;;27.77;;
34832;SDS011;55941;50.800;4.342;2022-12-11T08:37:50;55.83;;;27.42;;
34832;SDS011;55941;50.800;4.342;2022-12-11T08:40:16;47.70;;;26.00;;
34832;SDS011;55941;50.800;4.342;2022-12-11T08:42:42;48.85;;;26.17;;
34832;SDS011;55941;50.800;4.342;2022-12-11T08:45:08;49.08;;;27.55;;
34832;SDS011;55941;50.800;4.342;2022-12-11T08:47:34;52.40;;;26.52;;
34832;SDS011;55941;50.800;4.342;2022-12-11T08:50:00;53.17;;;27.00;;
34832;SDS011;55941;50.800;4.342;2022-12-11T08:52:26;48.78;;;26.67;;
34832;SDS011;55941;50.800;4.342;2022-12-11T08:54:52;51.78;;;28.17;;
34832;SDS011;55941;50.800;4.342;2022-12-11T08:57:18;54.20;;;28.25;;
34832;SDS011;55941;50.800;4.342;2022-12-11T08:59:43;51.50;;;26.65;;
34832;SDS011;55941;50.800;4.342;2022-12-11T09:02:12;51.05;;;27.35;;
34832;SDS011;55941;50.800;4.342;2022-12-11T09:04:38;43.00;;;24.15;;
34832;SDS011;55941;50.800;4.342;2022-12-11T09:07:05;46.75;;;24.10;;
34832;SDS011;55941;50.800;4.342;2022-12-11T09:09:31;53.88;;;25.50;;
34832;SDS011;55941;50.800;4.342;2022-12-11T09:11:57;51.42;;;25.15;;
34832;SDS011;55941;50.800;4.342;2022-12-11T09:14:26;47.05;;;24.55;;
34832;SDS011;55941;50.800;4.342;2022-12-11T09:16:51;49.13;;;24.38;;
34832;SDS011;55941;50.800;4.342;2022-12-11T09:19:17;47.67;;;25.23;;
34832;SDS011;55941;50.800;4.342;2022-12-11T09:21:43;50.95;;;25.95;;
34832;SDS011;55941;50.800;4.342;2022-12-11T09:24:10;55.00;;;27.73;;
34832;SDS011;55941;50.800;4.342;2022-12-11T09:26:36;55.08;;;27.02;;
34832;SDS011;55941;50.800;4.342;2022-12-11T09:29:03;55.88;;;28.13;;
34832;SDS011;55941;50.800;4.342;2022-12-11T09:31:30;50.05;;;26.08;;
34832;SDS011;55941;50.800;4.342;2022-12-11T09:34:00;55.38;;;26.00;;
34832;SDS011;55941;50.800;4.342;2022-12-11T09:36:28;47.60;;;25.50;;
34832;SDS011;55941;50.800;4.342;2022-12-11T09:38:54;52.95;;;26.63;;
34832;SDS011;55941;50.800;4.342;2022-12-11T09:41:35;49.80;;;25.55;;
34832;SDS011;55941;50.800;4.342;2022-12-11T09:46:37;44.50;;;24.08;;
34832;SDS011;55941;50.800;4.342;2022-12-11T09:49:04;42.53;;;23.85;;
34832;SDS011;55941;50.800;4.342;2022-12-11T09:52:03;48.38;;;25.77;;
34832;SDS011;55941;50.800;4.342;2022-12-11T09:54:44;45.88;;;24.95;;
34832;SDS011;55941;50.800;4.342;2022-12-11T10:05:54;55.20;;;26.48;;
34832;SDS011;55941;50.800;4.342;2022-12-11T10:08:47;54.60;;;25.92;;
34832;SDS011;55941;50.800;4.342;2022-12-11T10:11:46;46.88;;;23.85;;
34832;SDS011;55941;50.800;4.342;2022-12-11T10:16:56;53.13;;;26.48;;
34832;SDS011;55941;50.800;4.342;2022-12-11T10:19:28;53.63;;;26.17;;
34832;SDS011;55941;50.800;4.342;2022-12-11T10:21:55;53.65;;;27.58;;
34832;SDS011;55941;50.800;4.342;2022-12-11T10:26:48;55.13;;;27.15;;
34832;SDS011;55941;50.800;4.342;2022-12-11T10:29:19;41.95;;;20.15;;
34832;SDS011;55941;50.800;4.342;2022-12-11T10:31:49;60.05;;;26.45;;
34832;SDS011;55941;50.800;4.342;2022-12-11T10:36:53;53.38;;;25.80;;
34832;SDS011;55941;50.800;4.342;2022-12-11T10:39:20;59.55;;;26.90;;
34832;SDS011;55941;50.800;4.342;2022-12-11T10:41:47;61.55;;;28.00;;
34832;SDS011;55941;50.800;4.342;2022-12-11T10:46:40;54.13;;;25.38;;
34832;SDS011;55941;50.800;4.342;2022-12-11T10:49:17;54.45;;;25.40;;
34832;SDS011;55941;50.800;4.342;2022-12-11T10:51:53;57.85;;;26.00;;
34832;SDS011;55941;50.800;4.342;2022-12-11T10:56:59;58.60;;;25.92;;
34832;SDS011;55941;50.800;4.342;2022-12-11T11:02:05;53.92;;;24.73;;
34832;SDS011;55941;50.800;4.342;2022-12-11T11:04:41;55.30;;;24.73;;
34832;SDS011;55941;50.800;4.342;2022-12-11T11:10:14;43.00;;;20.30;;
34832;SDS011;55941;50.800;4.342;2022-12-11T11:12:44;45.05;;;19.98;;
34832;SDS011;55941;50.800;4.342;2022-12-11T11:15:14;37.28;;;19.20;;
34832;SDS011;55941;50.800;4.342;2022-12-11T11:17:48;43.47;;;20.25;;
34832;SDS011;55941;50.800;4.342;2022-12-11T11:20:18;40.97;;;20.35;;
34832;SDS011;55941;50.800;4.342;2022-12-11T11:22:49;43.40;;;20.02;;
34832;SDS011;55941;50.800;4.342;2022-12-11T11:27:47;41.88;;;19.10;;
34832;SDS011;55941;50.800;4.342;2022-12-11T11:32:50;37.28;;;17.85;;
34832;SDS011;55941;50.800;4.342;2022-12-11T11:35:20;38.78;;;17.77;;
34832;SDS011;55941;50.800;4.342;2022-12-11T11:40:43;41.53;;;20.10;;
34832;SDS011;55941;50.800;4.342;2022-12-11T11:44:06;43.90;;;19.45;;
34832;SDS011;55941;50.800;4.342;2022-12-11T11:46:36;38.53;;;18.35;;
34832;SDS011;55941;50.800;4.342;2022-12-11T11:52:03;38.53;;;18.30;;
34832;SDS011;55941;50.800;4.342;2022-12-11T11:57:40;36.75;;;18.55;;
34832;SDS011;55941;50.800;4.342;2022-12-11T12:00:29;41.25;;;19.20;;
34832;SDS011;55941;50.800;4.342;2022-12-11T12:02:57;44.08;;;20.60;;
34832;SDS011;55941;50.800;4.342;2022-12-11T12:11:03;41.70;;;18.13;;
34832;SDS011;55941;50.800;4.342;2022-12-11T12:19:06;45.85;;;20.80;;
34832;SDS011;55941;50.800;4.342;2022-12-11T12:21:38;47.80;;;21.05;;
34832;SDS011;55941;50.800;4.342;2022-12-11T12:24:14;44.83;;;21.65;;
34832;SDS011;55941;50.800;4.342;2022-12-11T12:27:07;40.40;;;19.88;;
34832;SDS011;55941;50.800;4.342;2022-12-11T12:30:02;52.00;;;22.08;;
34832;SDS011;55941;50.800;4.342;2022-12-11T12:32:42;45.45;;;21.40;;
34832;SDS011;55941;50.800;4.342;2022-12-11T12:35:39;45.75;;;21.70;;
34832;SDS011;55941;50.800;4.342;2022-12-11T12:38:20;46.53;;;21.20;;
34832;SDS011;55941;50.800;4.342;2022-12-11T12:41:15;44.75;;;21.27;;
34832;SDS011;55941;50.800;4.342;2022-12-11T12:44:03;54.15;;;25.45;;
34832;SDS011;55941;50.800;4.342;2022-12-11T12:46:48;50.83;;;25.08;;
34832;SDS011;55941;50.800;4.342;2022-12-11T12:49:34;50.08;;;23.05;;
34832;SDS011;55941;50.800;4.342;2022-12-11T12:52:01;49.17;;;21.92;;
34832;SDS011;55941;50.800;4.342;2022-12-11T12:54:29;56.00;;;23.63;;
34832;SDS011;55941;50.800;4.342;2022-12-11T12:56:57;47.53;;;23.08;;
34832;SDS011;55941;50.800;4.342;2022-12-11T12:59:26;57.55;;;24.17;;
34832;SDS011;55941;50.800;4.342;2022-12-11T13:01:56;52.97;;;23.17;;
34832;SDS011;55941;50.800;4.342;2022-12-11T13:06:52;56.28;;;23.45;;
34832;SDS011;55941;50.800;4.342;2022-12-11T13:09:20;46.47;;;23.83;;
34832;SDS011;55941;50.800;4.342;2022-12-11T13:11:48;50.20;;;23.88;;
34832;SDS011;55941;50.800;4.342;2022-12-11T13:16:46;51.05;;;23.75;;
34832;SDS011;55941;50.800;4.342;2022-12-11T13:21:58;58.65;;;25.02;;
34832;SDS011;55941;50.800;4.342;2022-12-11T13:26:51;49.28;;;23.08;;
34832;SDS011;55941;50.800;4.342;2022-12-11T13:29:39;50.92;;;25.70;;
34832;SDS011;55941;50.800;4.342;2022-12-11T13:34:32;52.35;;;24.52;;
34832;SDS011;55941;50.800;4.342;2022-12-11T13:37:30;49.15;;;24.58;;
34832;SDS011;55941;50.800;4.342;2022-12-11T13:40:07;48.75;;;25.45;;
34832;SDS011;55941;50.800;4.342;2022-12-11T13:42:54;58.25;;;24.95;;
34832;SDS011;55941;50.800;4.342;2022-12-11T13:48:27;61.83;;;27.33;;
34832;SDS011;55941;50.800;4.342;2022-12-11T13:51:00;53.08;;;26.20;;
34832;SDS011;55941;50.800;4.342;2022-12-11T13:53:26;57.90;;;27.55;;
34832;SDS011;55941;50.800;4.342;2022-12-11T13:56:03;56.42;;;25.50;;
34832;SDS011;55941;50.800;4.342;2022-12-11T13:58:33;60.13;;;26.92;;
34832;SDS011;55941;50.800;4.342;2022-12-11T14:01:11;61.70;;;26.42;;
34832;SDS011;55941;50.800;4.342;2022-12-11T14:03:42;50.80;;;26.35;;
34832;SDS011;55941;50.800;4.342;2022-12-11T14:06:21;56.70;;;26.27;;
34832;SDS011;55941;50.800;4.342;2022-12-11T14:08:49;63.13;;;29.13;;
34832;SDS011;55941;50.800;4.342;2022-12-11T14:11:20;51.83;;;27.13;;
34832;SDS011;55941;50.800;4.342;2022-12-11T14:13:47;56.13;;;28.23;;
34832;SDS011;55941;50.800;4.342;2022-12-11T14:16:23;61.92;;;30.50;;
34832;SDS011;55941;50.800;4.342;2022-12-11T14:18:51;63.13;;;31.10;;
34832;SDS011;55941;50.800;4.342;2022-12-11T14:21:20;58.17;;;28.75;;
34832;SDS011;55941;50.800;4.342;2022-12-11T14:23:51;58.05;;;29.15;;
34832;SDS011;55941;50.800;4.342;2022-12-11T14:26:20;62.88;;;29.00;;
34832;SDS011;55941;50.800;4.342;2022-12-11T14:28:48;64.68;;;30.48;;
34832;SDS011;55941;50.800;4.342;2022-12-11T14:31:16;63.67;;;29.67;;
34832;SDS011;55941;50.800;4.342;2022-12-11T14:33:55;59.05;;;28.02;;
34832;SDS011;55941;50.800;4.342;2022-12-11T14:36:27;54.05;;;28.67;;
34832;SDS011;55941;50.800;4.342;2022-12-11T14:41:32;60.00;;;29.35;;
34832;SDS011;55941;50.800;4.342;2022-12-11T14:44:13;62.35;;;29.60;;
34832;SDS011;55941;50.800;4.342;2022-12-11T14:46:47;57.30;;;29.05;;
34832;SDS011;55941;50.800;4.342;2022-12-11T14:49:19;53.47;;;26.80;;
34832;SDS011;55941;50.800;4.342;2022-12-11T14:51:50;54.40;;;26.17;;
34832;SDS011;55941;50.800;4.342;2022-12-11T14:54:30;54.30;;;25.17;;
34832;SDS011;55941;50.800;4.342;2022-12-11T14:56:59;48.45;;;24.15;;
34832;SDS011;55941;50.800;4.342;2022-12-11T14:59:30;47.72;;;23.13;;
34832;SDS011;55941;50.800;4.342;2022-12-11T15:02:01;44.20;;;23.38;;
34832;SDS011;55941;50.800;4.342;2022-12-11T15:04:43;41.92;;;21.27;;
34832;SDS011;55941;50.800;4.342;2022-12-11T15:07:27;44.85;;;20.83;;
34832;SDS011;55941;50.800;4.342;2022-12-11T15:09:53;47.83;;;21.48;;
34832;SDS011;55941;50.800;4.342;2022-12-11T15:12:19;44.45;;;21.05;;
34832;SDS011;55941;50.800;4.342;2022-12-11T15:14:50;41.72;;;22.17;;
34832;SDS011;55941;50.800;4.342;2022-12-11T15:17:20;48.95;;;23.20;;
34832;SDS011;55941;50.800;4.342;2022-12-11T15:19:50;38.85;;;21.42;;
34832;SDS011;55941;50.800;4.342;2022-12-11T15:22:19;41.33;;;21.27;;
34832;SDS011;55941;50.800;4.342;2022-12-11T15:24:48;42.47;;;21.27;;
34832;SDS011;55941;50.800;4.342;2022-12-11T15:29:45;37.92;;;20.38;;
34832;SDS011;55941;50.800;4.342;2022-12-11T15:34:43;37.35;;;20.20;;
34832;SDS011;55941;50.800;4.342;2022-12-11T15:39:46;39.85;;;21.08;;
34832;SDS011;55941;50.800;4.342;2022-12-11T15:42:13;38.03;;;20.45;;
34832;SDS011;55941;50.800;4.342;2022-12-11T15:47:13;35.55;;;20.25;;
34832;SDS011;55941;50.800;4.342;2022-12-11T15:49:45;43.88;;;20.17;;
34832;SDS011;55941;50.800;4.342;2022-12-11T15:52:10;38.88;;;19.75;;
34832;SDS011;55941;50.800;4.342;2022-12-11T15:54:36;43.58;;;21.70;;
34832;SDS011;55941;50.800;4.342;2022-12-11T15:57:03;40.80;;;20.42;;
34832;SDS011;55941;50.800;4.342;2022-12-11T15:59:31;39.80;;;20.70;;
34832;SDS011;55941;50.800;4.342;2022-12-11T16:01:58;69.47;;;30.85;;
34832;SDS011;55941;50.800;4.342;2022-12-11T16:04:24;59.40;;;30.10;;
34832;SDS011;55941;50.800;4.342;2022-12-11T16:06:49;51.63;;;26.38;;
34832;SDS011;55941;50.800;4.342;2022-12-11T16:09:15;84.50;;;50.17;;
34832;SDS011;55941;50.800;4.342;2022-12-11T16:11:41;55.08;;;31.05;;
34832;SDS011;55941;50.800;4.342;2022-12-11T16:14:07;57.38;;;29.60;;
34832;SDS011;55941;50.800;4.342;2022-12-11T16:16:32;47.85;;;26.70;;
34832;SDS011;55941;50.800;4.342;2022-12-11T16:19:03;46.25;;;25.52;;
34832;SDS011;55941;50.800;4.342;2022-12-11T16:23:56;45.92;;;22.85;;
34832;SDS011;55941;50.800;4.342;2022-12-11T16:26:21;43.30;;;21.52;;